sensor_id;sensor_type;location;lat;lon;timestamp;pressure;altitude;pressure_sealevel;temperature;humidity
36514;BME280;66331;46.796;9.824;2023-01-10T00:01:51;83865.42;;;-2.50;45.13
36514;BME280;66331;46.796;9.824;2023-01-10T00:04:18;83863.55;;;-2.54;46.12
36514;BME280;66331;46.796;9.824;2023-01-10T00:06:45;83860.83;;;-2.97;47.05
36514;BME280;66331;46.796;9.824;2023-01-10T00:09:13;83871.05;;;-2.51;46.39
36514;BME280;66331;46.796;9.824;2023-01-10T00:11:40;83876.75;;;-3.19;48.16
36514;BME280;66331;46.796;9.824;2023-01-10T00:14:07;83876.75;;;-2.84;48.29
36514;BME280;66331;46.796;9.824;2023-01-10T00:16:34;83881.23;;;-2.69;47.49
36514;BME280;66331;46.796;9.824;2023-01-10T00:19:00;83886.26;;;-3.12;48.93
36514;BME280;66331;46.796;9.824;2023-01-10T00:21:28;83884.60;;;-2.79;48.79
36514;BME280;66331;46.796;9.824;2023-01-10T00:23:55;83891.90;;;-2.76;48.89
36514;BME280;66331;46.796;9.824;2023-01-10T00:26:21;83895.24;;;-3.36;50.25
36514;BME280;66331;46.796;9.824;2023-01-10T00:28:50;83894.71;;;-2.84;49.58
36514;BME280;66331;46.796;9.824;2023-01-10T00:31:17;83900.85;;;-3.39;50.57
36514;BME280;66331;46.796;9.824;2023-01-10T00:33:44;83901.88;;;-2.97;50.06
36514;BME280;66331;46.796;9.824;2023-01-10T00:36:11;83902.15;;;-3.00;50.71
36514;BME280;66331;46.796;9.824;2023-01-10T00:38:38;83900.72;;;-2.77;50.64
36514;BME280;66331;46.796;9.824;2023-01-10T00:41:05;83898.13;;;-3.01;50.80
36514;BME280;66331;46.796;9.824;2023-01-10T00:43:32;83894.23;;;-3.25;51.10
36514;BME280;66331;46.796;9.824;2023-01-10T00:46:00;83891.06;;;-2.45;50.41
36514;BME280;66331;46.796;9.824;2023-01-10T00:48:27;83903.51;;;-2.87;50.57
36514;BME280;66331;46.796;9.824;2023-01-10T00:50:54;83904.71;;;-2.95;50.90
36514;BME280;66331;46.796;9.824;2023-01-10T00:53:21;83905.26;;;-2.62;50.32
36514;BME280;66331;46.796;9.824;2023-01-10T00:55:48;83906.90;;;-3.18;50.64
36514;BME280;66331;46.796;9.824;2023-01-10T00:58:16;83913.80;;;-2.94;50.25
36514;BME280;66331;46.796;9.824;2023-01-10T01:00:43;83912.09;;;-2.38;49.29
36514;BME280;66331;46.796;9.824;2023-01-10T01:03:11;83915.05;;;-2.66;49.66
36514;BME280;66331;46.796;9.824;2023-01-10T01:05:40;83916.50;;;-2.67;49.70
36514;BME280;66331;46.796;9.824;2023-01-10T01:08:07;83919.36;;;-2.83;49.96
36514;BME280;66331;46.796;9.824;2023-01-10T01:10:34;83928.15;;;-3.08;51.72
36514;BME280;66331;46.796;9.824;2023-01-10T01:13:07;83929.64;;;-3.11;51.42
36514;BME280;66331;46.796;9.824;2023-01-10T01:15:35;83935.65;;;-3.53;51.71
36514;BME280;66331;46.796;9.824;2023-01-10T01:18:03;83943.82;;;-2.79;50.63
36514;BME280;66331;46.796;9.824;2023-01-10T01:20:31;83955.27;;;-2.97;50.30
36514;BME280;66331;46.796;9.824;2023-01-10T01:22:59;83955.20;;;-3.58;52.20
36514;BME280;66331;46.796;9.824;2023-01-10T01:25:27;83958.74;;;-2.43;50.09
36514;BME280;66331;46.796;9.824;2023-01-10T01:27:54;83957.34;;;-2.50;50.01
36514;BME280;66331;46.796;9.824;2023-01-10T01:30:21;83965.35;;;-2.69;50.60
36514;BME280;66331;46.796;9.824;2023-01-10T01:32:48;83958.04;;;-2.14;49.86
36514;BME280;66331;46.796;9.824;2023-01-10T01:35:16;83963.44;;;-2.62;50.78
36514;BME280;66331;46.796;9.824;2023-01-10T01:37:44;83965.62;;;-2.57;51.08
36514;BME280;66331;46.796;9.824;2023-01-10T01:40:13;83972.14;;;-3.61;53.54
36514;BME280;66331;46.796;9.824;2023-01-10T01:42:40;83961.38;;;-3.10;52.90
36514;BME280;66331;46.796;9.824;2023-01-10T01:45:40;83966.35;;;-3.25;53.09
36514;BME280;66331;46.796;9.824;2023-01-10T01:48:23;83975.29;;;-3.85;54.76
36514;BME280;66331;46.796;9.824;2023-01-10T01:50:54;83984.06;;;-2.99;52.79
36514;BME280;66331;46.796;9.824;2023-01-10T01:53:27;83989.48;;;-2.58;50.90
36514;BME280;66331;46.796;9.824;2023-01-10T01:56:01;84001.93;;;-3.57;52.99
36514;BME280;66331;46.796;9.824;2023-01-10T01:58:35;84001.41;;;-2.66;51.14
36514;BME280;66331;46.796;9.824;2023-01-10T02:01:05;84012.96;;;-2.76;50.71
36514;BME280;66331;46.796;9.824;2023-01-10T02:03:33;84008.70;;;-2.48;50.85
36514;BME280;66331;46.796;9.824;2023-01-10T02:06:01;84016.21;;;-2.47;51.39
36514;BME280;66331;46.796;9.824;2023-01-10T02:08:28;84016.26;;;-2.23;50.50
36514;BME280;66331;46.796;9.824;2023-01-10T02:11:02;84018.57;;;-2.23;50.44
36514;BME280;66331;46.796;9.824;2023-01-10T02:13:32;84013.34;;;-2.41;51.52
36514;BME280;66331;46.796;9.824;2023-01-10T02:16:01;84015.26;;;-3.27;52.98
36514;BME280;66331;46.796;9.824;2023-01-10T02:18:29;84014.95;;;-3.22;53.10
36514;BME280;66331;46.796;9.824;2023-01-10T02:21:12;84026.04;;;-3.01;52.32
36514;BME280;66331;46.796;9.824;2023-01-10T02:24:13;84033.53;;;-2.42;50.84
36514;BME280;66331;46.796;9.824;2023-01-10T02:26:59;84034.79;;;-2.90;51.75
36514;BME280;66331;46.796;9.824;2023-01-10T02:30:48;84032.53;;;-2.66;50.94
36514;BME280;66331;46.796;9.824;2023-01-10T02:33:26;84041.20;;;-2.76;51.38
36514;BME280;66331;46.796;9.824;2023-01-10T02:36:12;84055.90;;;-2.69;50.90
36514;BME280;66331;46.796;9.824;2023-01-10T02:38:52;84062.71;;;-2.72;50.88
36514;BME280;66331;46.796;9.824;2023-01-10T02:41:28;84055.11;;;-2.41;50.56
36514;BME280;66331;46.796;9.824;2023-01-10T02:44:03;84057.36;;;-2.24;49.61
36514;BME280;66331;46.796;9.824;2023-01-10T02:46:33;84058.91;;;-2.19;50.27
36514;BME280;66331;46.796;9.824;2023-01-10T02:49:03;84067.77;;;-2.94;51.62
36514;BME280;66331;46.796;9.824;2023-01-10T02:51:30;84067.09;;;-1.95;49.75
36514;BME280;66331;46.796;9.824;2023-01-10T02:54:06;84058.84;;;-2.78;50.67
36514;BME280;66331;46.796;9.824;2023-01-10T02:57:09;84060.51;;;-2.35;49.76
36514;BME280;66331;46.796;9.824;2023-01-10T03:00:07;84068.76;;;-2.66;50.04
36514;BME280;66331;46.796;9.824;2023-01-10T03:02:46;84073.64;;;-2.73;50.74
36514;BME280;66331;46.796;9.824;2023-01-10T03:05:24;84070.27;;;-3.04;50.82
36514;BME280;66331;46.796;9.824;2023-01-10T03:08:02;84068.11;;;-2.67;49.32
36514;BME280;66331;46.796;9.824;2023-01-10T03:10:40;84071.52;;;-2.73;49.37
36514;BME280;66331;46.796;9.824;2023-01-10T03:13:13;84074.19;;;-1.79;47.51
36514;BME280;66331;46.796;9.824;2023-01-10T03:15:44;84093.15;;;-2.11;47.46
36514;BME280;66331;46.796;9.824;2023-01-10T03:18:17;84092.47;;;-2.98;49.78
36514;BME280;66331;46.796;9.824;2023-01-10T03:20:47;84090.10;;;-2.62;49.33
36514;BME280;66331;46.796;9.824;2023-01-10T03:23:17;84096.15;;;-2.88;49.75
36514;BME280;66331;46.796;9.824;2023-01-10T03:25:46;84096.28;;;-2.24;48.88
36514;BME280;66331;46.796;9.824;2023-01-10T03:28:16;84106.20;;;-2.82;50.02
36514;BME280;66331;46.796;9.824;2023-01-10T03:30:49;84105.48;;;-2.86;50.33
36514;BME280;66331;46.796;9.824;2023-01-10T03:33:21;84104.82;;;-2.75;49.87
36514;BME280;66331;46.796;9.824;2023-01-10T03:35:57;84102.19;;;-2.56;49.77
36514;BME280;66331;46.796;9.824;2023-01-10T03:38:31;84107.96;;;-2.42;49.41
36514;BME280;66331;46.796;9.824;2023-01-10T03:41:06;84107.87;;;-2.05;49.14
36514;BME280;66331;46.796;9.824;2023-01-10T03:43:43;84117.24;;;-3.02;51.41
36514;BME280;66331;46.796;9.824;2023-01-10T03:46:23;84123.70;;;-2.74;50.71
36514;BME280;66331;46.796;9.824;2023-01-10T03:48:54;84126.39;;;-3.78;54.24
36514;BME280;66331;46.796;9.824;2023-01-10T03:51:23;84135.20;;;-3.99;54.16
36514;BME280;66331;46.796;9.824;2023-01-10T03:53:52;84139.74;;;-3.27;52.02
36514;BME280;66331;46.796;9.824;2023-01-10T03:56:19;84144.39;;;-2.86;50.43
36514;BME280;66331;46.796;9.824;2023-01-10T03:58:45;84144.54;;;-2.50;50.52
36514;BME280;66331;46.796;9.824;2023-01-10T04:01:13;84159.43;;;-3.87;53.34
36514;BME280;66331;46.796;9.824;2023-01-10T04:03:40;84170.96;;;-2.04;50.20
36514;BME280;66331;46.796;9.824;2023-01-10T04:06:07;84180.98;;;-2.37;51.01
36514;BME280;66331;46.796;9.824;2023-01-10T04:08:34;84180.26;;;-4.90;57.70
36514;BME280;66331;46.796;9.824;2023-01-10T04:11:02;84192.16;;;-4.12;55.91
36514;BME280;66331;46.796;9.824;2023-01-10T04:13:29;84203.94;;;-3.28;54.42
36514;BME280;66331;46.796;9.824;2023-01-10T04:15:59;84210.06;;;-3.30;52.56
36514;BME280;66331;46.796;9.824;2023-01-10T04:18:26;84208.16;;;-4.41;57.12
36514;BME280;66331;46.796;9.824;2023-01-10T04:20:53;84219.56;;;-3.02;53.35
36514;BME280;66331;46.796;9.824;2023-01-10T04:23:20;84219.47;;;-4.36;55.78
36514;BME280;66331;46.796;9.824;2023-01-10T04:25:47;84231.27;;;-3.23;53.21
36514;BME280;66331;46.796;9.824;2023-01-10T04:28:14;84228.02;;;-3.05;52.91
36514;BME280;66331;46.796;9.824;2023-01-10T04:30:41;84233.44;;;-3.07;53.07
36514;BME280;66331;46.796;9.824;2023-01-10T04:33:08;84237.86;;;-3.21;52.65
36514;BME280;66331;46.796;9.824;2023-01-10T04:35:35;84230.44;;;-2.71;51.75
36514;BME280;66331;46.796;9.824;2023-01-10T04:38:02;84237.70;;;-2.71;51.29
36514;BME280;66331;46.796;9.824;2023-01-10T04:40:29;84250.26;;;-3.38;52.78
36514;BME280;66331;46.796;9.824;2023-01-10T04:42:56;84243.95;;;-2.90;51.09
36514;BME280;66331;46.796;9.824;2023-01-10T04:45:23;84260.14;;;-3.11;51.28
36514;BME280;66331;46.796;9.824;2023-01-10T04:47:51;84249.49;;;-3.69;52.61
36514;BME280;66331;46.796;9.824;2023-01-10T04:50:18;84255.19;;;-3.61;54.38
36514;BME280;66331;46.796;9.824;2023-01-10T04:52:45;84256.97;;;-4.24;55.03
36514;BME280;66331;46.796;9.824;2023-01-10T04:55:12;84264.27;;;-4.65;54.25
36514;BME280;66331;46.796;9.824;2023-01-10T04:57:39;84274.05;;;-3.03;51.33
36514;BME280;66331;46.796;9.824;2023-01-10T05:00:08;84278.71;;;-3.29;51.85
36514;BME280;66331;46.796;9.824;2023-01-10T05:02:35;84277.49;;;-3.15;50.72
36514;BME280;66331;46.796;9.824;2023-01-10T05:05:02;84283.87;;;-3.53;51.82
36514;BME280;66331;46.796;9.824;2023-01-10T05:07:29;84287.38;;;-2.06;48.76
36514;BME280;66331;46.796;9.824;2023-01-10T05:09:56;84283.94;;;-2.38;49.29
36514;BME280;66331;46.796;9.824;2023-01-10T05:12:23;84292.92;;;-3.19;50.67
36514;BME280;66331;46.796;9.824;2023-01-10T05:14:50;84280.80;;;-3.75;48.66
36514;BME280;66331;46.796;9.824;2023-01-10T05:17:17;84276.70;;;-4.25;52.33
36514;BME280;66331;46.796;9.824;2023-01-10T05:19:44;84283.87;;;-4.16;53.87
36514;BME280;66331;46.796;9.824;2023-01-10T05:22:11;84287.45;;;-4.15;53.59
36514;BME280;66331;46.796;9.824;2023-01-10T05:24:38;84290.96;;;-3.76;51.81
36514;BME280;66331;46.796;9.824;2023-01-10T05:27:05;84302.17;;;-3.57;50.56
36514;BME280;66331;46.796;9.824;2023-01-10T05:29:32;84307.47;;;-3.21;49.55
36514;BME280;66331;46.796;9.824;2023-01-10T05:32:00;84309.58;;;-3.90;51.97
36514;BME280;66331;46.796;9.824;2023-01-10T05:34:28;84315.89;;;-3.09;49.25
36514;BME280;66331;46.796;9.824;2023-01-10T05:36:55;84319.81;;;-4.36;47.45
36514;BME280;66331;46.796;9.824;2023-01-10T05:39:21;84328.43;;;-4.05;48.07
36514;BME280;66331;46.796;9.824;2023-01-10T05:41:48;84327.40;;;-3.96;50.82
36514;BME280;66331;46.796;9.824;2023-01-10T05:44:16;84346.72;;;-3.81;51.88
36514;BME280;66331;46.796;9.824;2023-01-10T05:46:43;84346.51;;;-3.88;51.17
36514;BME280;66331;46.796;9.824;2023-01-10T05:49:10;84348.06;;;-3.93;50.36
36514;BME280;66331;46.796;9.824;2023-01-10T05:51:37;84354.00;;;-4.41;50.85
36514;BME280;66331;46.796;9.824;2023-01-10T05:54:04;84354.34;;;-4.39;51.57
36514;BME280;66331;46.796;9.824;2023-01-10T05:56:31;84362.53;;;-3.30;50.02
36514;BME280;66331;46.796;9.824;2023-01-10T05:58:58;84377.46;;;-3.60;50.08
36514;BME280;66331;46.796;9.824;2023-01-10T06:01:26;84377.28;;;-4.27;50.40
36514;BME280;66331;46.796;9.824;2023-01-10T06:03:52;84375.31;;;-3.05;48.67
36514;BME280;66331;46.796;9.824;2023-01-10T06:06:19;84379.68;;;-3.40;49.46
36514;BME280;66331;46.796;9.824;2023-01-10T06:08:46;84393.34;;;-2.44;47.89
36514;BME280;66331;46.796;9.824;2023-01-10T06:11:14;84396.24;;;-2.63;47.48
36514;BME280;66331;46.796;9.824;2023-01-10T06:13:40;84408.09;;;-2.92;47.86
36514;BME280;66331;46.796;9.824;2023-01-10T06:16:07;84412.06;;;-3.58;49.33
36514;BME280;66331;46.796;9.824;2023-01-10T06:18:35;84408.12;;;-4.10;49.12
36514;BME280;66331;46.796;9.824;2023-01-10T06:21:01;84418.28;;;-4.14;51.34
36514;BME280;66331;46.796;9.824;2023-01-10T06:23:28;84421.15;;;-4.26;51.28
36514;BME280;66331;46.796;9.824;2023-01-10T06:25:56;84421.03;;;-3.42;49.25
36514;BME280;66331;46.796;9.824;2023-01-10T06:28:22;84430.53;;;-3.00;48.44
36514;BME280;66331;46.796;9.824;2023-01-10T06:30:50;84434.86;;;-3.14;48.52
36514;BME280;66331;46.796;9.824;2023-01-10T06:33:18;84429.33;;;-4.12;51.33
36514;BME280;66331;46.796;9.824;2023-01-10T06:35:45;84435.59;;;-3.42;49.78
36514;BME280;66331;46.796;9.824;2023-01-10T06:38:12;84439.91;;;-3.14;50.49
36514;BME280;66331;46.796;9.824;2023-01-10T06:40:39;84448.46;;;-4.51;52.52
36514;BME280;66331;46.796;9.824;2023-01-10T06:43:07;84452.33;;;-5.15;53.77
36514;BME280;66331;46.796;9.824;2023-01-10T06:45:34;84457.95;;;-4.03;50.27
36514;BME280;66331;46.796;9.824;2023-01-10T06:48:02;84468.34;;;-4.18;51.18
36514;BME280;66331;46.796;9.824;2023-01-10T06:50:29;84473.48;;;-3.18;48.73
36514;BME280;66331;46.796;9.824;2023-01-10T06:52:56;84481.43;;;-4.11;48.54
36514;BME280;66331;46.796;9.824;2023-01-10T06:55:24;84480.83;;;-5.71;55.04
36514;BME280;66331;46.796;9.824;2023-01-10T06:57:54;84482.36;;;-3.99;51.22
36514;BME280;66331;46.796;9.824;2023-01-10T07:00:22;84498.98;;;-5.62;54.19
36514;BME280;66331;46.796;9.824;2023-01-10T07:02:50;84495.48;;;-6.01;49.82
36514;BME280;66331;46.796;9.824;2023-01-10T07:05:17;84500.35;;;-5.92;48.16
36514;BME280;66331;46.796;9.824;2023-01-10T07:07:44;84514.30;;;-5.02;50.21
36514;BME280;66331;46.796;9.824;2023-01-10T07:10:11;84516.60;;;-4.74;47.25
36514;BME280;66331;46.796;9.824;2023-01-10T07:12:39;84521.28;;;-3.55;47.87
36514;BME280;66331;46.796;9.824;2023-01-10T07:15:07;84523.98;;;-4.06;48.05
36514;BME280;66331;46.796;9.824;2023-01-10T07:17:35;84527.52;;;-4.37;49.86
36514;BME280;66331;46.796;9.824;2023-01-10T07:20:02;84536.34;;;-4.00;48.19
36514;BME280;66331;46.796;9.824;2023-01-10T07:22:29;84537.13;;;-3.52;48.06
36514;BME280;66331;46.796;9.824;2023-01-10T07:24:56;84537.62;;;-3.37;48.17
36514;BME280;66331;46.796;9.824;2023-01-10T07:27:23;84548.11;;;-2.83;47.01
36514;BME280;66331;46.796;9.824;2023-01-10T07:29:55;84528.74;;;-4.23;49.63
36514;BME280;66331;46.796;9.824;2023-01-10T07:32:23;84550.99;;;-4.60;49.79
36514;BME280;66331;46.796;9.824;2023-01-10T07:34:50;84557.64;;;-5.22;51.02
36514;BME280;66331;46.796;9.824;2023-01-10T07:37:22;84548.28;;;-4.58;42.95
36514;BME280;66331;46.796;9.824;2023-01-10T07:39:49;84554.75;;;-4.28;48.77
36514;BME280;66331;46.796;9.824;2023-01-10T07:42:16;84564.77;;;-3.74;46.82
36514;BME280;66331;46.796;9.824;2023-01-10T07:44:43;84583.42;;;-4.74;48.24
36514;BME280;66331;46.796;9.824;2023-01-10T07:47:10;84580.56;;;-3.99;46.54
36514;BME280;66331;46.796;9.824;2023-01-10T07:49:37;84585.85;;;-3.58;45.36
36514;BME280;66331;46.796;9.824;2023-01-10T07:52:05;84588.97;;;-3.66;45.01
36514;BME280;66331;46.796;9.824;2023-01-10T07:54:31;84590.80;;;-3.12;41.63
36514;BME280;66331;46.796;9.824;2023-01-10T07:56:58;84593.89;;;-3.25;41.88
36514;BME280;66331;46.796;9.824;2023-01-10T07:59:26;84595.24;;;-3.92;44.15
36514;BME280;66331;46.796;9.824;2023-01-10T08:01:59;84599.65;;;-3.47;42.66
36514;BME280;66331;46.796;9.824;2023-01-10T08:04:43;84603.81;;;-2.95;39.45
36514;BME280;66331;46.796;9.824;2023-01-10T08:07:17;84605.63;;;-3.53;41.04
36514;BME280;66331;46.796;9.824;2023-01-10T08:09:46;84614.95;;;-2.83;39.90
36514;BME280;66331;46.796;9.824;2023-01-10T08:12:13;84619.68;;;-4.33;44.70
36514;BME280;66331;46.796;9.824;2023-01-10T08:14:40;84625.10;;;-3.97;44.27
36514;BME280;66331;46.796;9.824;2023-01-10T08:17:07;84638.64;;;-3.43;43.50
36514;BME280;66331;46.796;9.824;2023-01-10T08:19:34;84645.45;;;-3.50;45.05
36514;BME280;66331;46.796;9.824;2023-01-10T08:22:01;84647.17;;;-4.21;44.53
36514;BME280;66331;46.796;9.824;2023-01-10T08:24:28;84648.53;;;-3.37;44.92
36514;BME280;66331;46.796;9.824;2023-01-10T08:26:57;84655.06;;;-3.51;44.94
36514;BME280;66331;46.796;9.824;2023-01-10T08:29:24;84668.99;;;-4.35;47.75
36514;BME280;66331;46.796;9.824;2023-01-10T08:31:51;84664.87;;;-3.20;46.05
36514;BME280;66331;46.796;9.824;2023-01-10T08:34:18;84667.20;;;-2.83;46.11
36514;BME280;66331;46.796;9.824;2023-01-10T08:36:46;84663.72;;;-2.67;45.42
36514;BME280;66331;46.796;9.824;2023-01-10T08:39:16;84665.88;;;-3.20;45.46
36514;BME280;66331;46.796;9.824;2023-01-10T08:41:43;84670.33;;;-2.88;45.36
36514;BME280;66331;46.796;9.824;2023-01-10T08:44:10;84674.01;;;-3.39;44.96
36514;BME280;66331;46.796;9.824;2023-01-10T08:46:37;84684.57;;;-3.55;46.87
36514;BME280;66331;46.796;9.824;2023-01-10T08:49:04;84694.27;;;-3.56;47.31
36514;BME280;66331;46.796;9.824;2023-01-10T08:51:31;84699.03;;;-3.35;46.24
36514;BME280;66331;46.796;9.824;2023-01-10T08:53:58;84707.60;;;-3.07;44.94
36514;BME280;66331;46.796;9.824;2023-01-10T08:56:25;84709.64;;;-2.98;45.06
36514;BME280;66331;46.796;9.824;2023-01-10T08:58:52;84712.50;;;-2.99;45.65
36514;BME280;66331;46.796;9.824;2023-01-10T09:01:20;84722.34;;;-4.10;47.97
36514;BME280;66331;46.796;9.824;2023-01-10T09:03:48;84717.75;;;-2.83;45.56
36514;BME280;66331;46.796;9.824;2023-01-10T09:06:15;84723.40;;;-3.33;45.63
36514;BME280;66331;46.796;9.824;2023-01-10T09:08:52;84728.75;;;-4.31;47.25
36514;BME280;66331;46.796;9.824;2023-01-10T09:11:19;84729.07;;;-3.91;47.56
36514;BME280;66331;46.796;9.824;2023-01-10T09:13:48;84729.78;;;-2.32;43.30
36514;BME280;66331;46.796;9.824;2023-01-10T09:16:16;84738.94;;;-2.91;43.58
36514;BME280;66331;46.796;9.824;2023-01-10T09:18:59;84737.53;;;-2.89;45.18
36514;BME280;66331;46.796;9.824;2023-01-10T09:21:27;84740.37;;;-2.64;40.93
36514;BME280;66331;46.796;9.824;2023-01-10T09:23:54;84745.59;;;-3.77;43.23
36514;BME280;66331;46.796;9.824;2023-01-10T09:26:21;84740.82;;;-3.41;45.30
36514;BME280;66331;46.796;9.824;2023-01-10T09:28:48;84740.87;;;-3.26;45.89
36514;BME280;66331;46.796;9.824;2023-01-10T09:31:15;84753.22;;;-3.37;45.95
36514;BME280;66331;46.796;9.824;2023-01-10T09:33:43;84761.45;;;-3.24;44.03
36514;BME280;66331;46.796;9.824;2023-01-10T09:36:10;84770.03;;;-2.64;43.17
36514;BME280;66331;46.796;9.824;2023-01-10T09:38:56;84765.47;;;-3.18;43.15
36514;BME280;66331;46.796;9.824;2023-01-10T09:41:53;84764.69;;;-2.23;42.00
36514;BME280;66331;46.796;9.824;2023-01-10T09:44:54;84758.44;;;-2.37;43.05
36514;BME280;66331;46.796;9.824;2023-01-10T09:47:32;84761.22;;;-2.59;42.52
36514;BME280;66331;46.796;9.824;2023-01-10T09:50:12;84765.56;;;-3.04;43.22
36514;BME280;66331;46.796;9.824;2023-01-10T09:52:45;84772.60;;;-2.48;42.16
36514;BME280;66331;46.796;9.824;2023-01-10T09:55:24;84773.32;;;-2.78;43.18
36514;BME280;66331;46.796;9.824;2023-01-10T09:58:04;84773.81;;;-3.16;44.19
36514;BME280;66331;46.796;9.824;2023-01-10T10:00:37;84766.09;;;-2.66;42.21
36514;BME280;66331;46.796;9.824;2023-01-10T10:03:20;84764.39;;;-2.60;42.16
36514;BME280;66331;46.796;9.824;2023-01-10T10:05:48;84772.22;;;-2.20;42.34
36514;BME280;66331;46.796;9.824;2023-01-10T10:08:21;84766.27;;;-2.28;40.81
36514;BME280;66331;46.796;9.824;2023-01-10T10:11:07;84769.68;;;-2.39;40.85
36514;BME280;66331;46.796;9.824;2023-01-10T10:13:49;84766.22;;;-2.26;40.17
36514;BME280;66331;46.796;9.824;2023-01-10T10:16:28;84771.41;;;-2.54;38.54
36514;BME280;66331;46.796;9.824;2023-01-10T10:19:03;84776.58;;;-3.44;43.02
36514;BME280;66331;46.796;9.824;2023-01-10T10:21:41;84775.31;;;-3.19;42.38
36514;BME280;66331;46.796;9.824;2023-01-10T10:24:26;84784.65;;;-4.33;44.89
36514;BME280;66331;46.796;9.824;2023-01-10T10:26:58;84785.15;;;-4.89;46.71
36514;BME280;66331;46.796;9.824;2023-01-10T10:29:42;84787.01;;;-4.62;45.34
36514;BME280;66331;46.796;9.824;2023-01-10T10:32:24;84777.95;;;-2.80;41.44
36514;BME280;66331;46.796;9.824;2023-01-10T10:35:02;84792.03;;;-3.32;40.56
36514;BME280;66331;46.796;9.824;2023-01-10T10:37:37;84786.69;;;-2.27;38.54
36514;BME280;66331;46.796;9.824;2023-01-10T10:40:15;84782.98;;;-2.27;36.72
36514;BME280;66331;46.796;9.824;2023-01-10T10:42:46;84786.72;;;-3.92;37.74
36514;BME280;66331;46.796;9.824;2023-01-10T10:45:18;84782.95;;;-3.81;38.06
36514;BME280;66331;46.796;9.824;2023-01-10T10:47:52;84787.41;;;-2.68;38.40
36514;BME280;66331;46.796;9.824;2023-01-10T10:50:27;84800.63;;;-2.70;38.62
36514;BME280;66331;46.796;9.824;2023-01-10T10:53:00;84798.25;;;-2.36;38.97
36514;BME280;66331;46.796;9.824;2023-01-10T10:55:32;84802.41;;;-1.58;37.78
36514;BME280;66331;46.796;9.824;2023-01-10T10:58:01;84803.89;;;-2.61;40.60
36514;BME280;66331;46.796;9.824;2023-01-10T11:00:30;84810.46;;;-3.45;41.67
36514;BME280;66331;46.796;9.824;2023-01-10T11:03:01;84802.34;;;-2.62;40.94
36514;BME280;66331;46.796;9.824;2023-01-10T11:05:35;84792.80;;;-2.05;39.32
36514;BME280;66331;46.796;9.824;2023-01-10T11:08:05;84791.18;;;-2.33;40.35
36514;BME280;66331;46.796;9.824;2023-01-10T11:10:33;84797.89;;;-1.66;37.62
36514;BME280;66331;46.796;9.824;2023-01-10T11:13:04;84807.06;;;-2.11;38.16
36514;BME280;66331;46.796;9.824;2023-01-10T11:15:37;84809.50;;;-2.13;38.52
36514;BME280;66331;46.796;9.824;2023-01-10T11:18:06;84813.19;;;-2.24;38.59
36514;BME280;66331;46.796;9.824;2023-01-10T11:20:36;84821.01;;;-2.12;39.15
36514;BME280;66331;46.796;9.824;2023-01-10T11:23:04;84818.16;;;-1.81;38.71
36514;BME280;66331;46.796;9.824;2023-01-10T11:25:31;84820.05;;;-1.85;38.43
36514;BME280;66331;46.796;9.824;2023-01-10T11:28:00;84821.09;;;-2.17;38.48
36514;BME280;66331;46.796;9.824;2023-01-10T11:30:30;84821.98;;;-2.10;37.59
36514;BME280;66331;46.796;9.824;2023-01-10T11:33:01;84820.53;;;-1.78;37.95
36514;BME280;66331;46.796;9.824;2023-01-10T11:35:31;84821.73;;;-1.81;36.64
36514;BME280;66331;46.796;9.824;2023-01-10T11:38:02;84820.08;;;-2.06;36.50
36514;BME280;66331;46.796;9.824;2023-01-10T11:40:30;84816.87;;;-1.06;35.12
36514;BME280;66331;46.796;9.824;2023-01-10T11:42:59;84818.98;;;-1.02;35.04
36514;BME280;66331;46.796;9.824;2023-01-10T11:45:29;84821.50;;;-1.52;35.02
36514;BME280;66331;46.796;9.824;2023-01-10T11:48:02;84820.54;;;-2.08;36.55
36514;BME280;66331;46.796;9.824;2023-01-10T11:50:35;84818.65;;;-1.02;35.60
36514;BME280;66331;46.796;9.824;2023-01-10T11:53:04;84820.73;;;-1.27;35.81
36514;BME280;66331;46.796;9.824;2023-01-10T11:55:35;84817.69;;;-1.03;35.18
36514;BME280;66331;46.796;9.824;2023-01-10T11:58:06;84817.13;;;-1.30;35.48
36514;BME280;66331;46.796;9.824;2023-01-10T12:00:38;84818.75;;;-2.01;37.07
36514;BME280;66331;46.796;9.824;2023-01-10T12:03:16;84821.99;;;-2.00;38.48
36514;BME280;66331;46.796;9.824;2023-01-10T12:05:52;84821.42;;;-0.69;35.57
36514;BME280;66331;46.796;9.824;2023-01-10T12:08:25;84820.76;;;-1.26;36.38
36514;BME280;66331;46.796;9.824;2023-01-10T12:11:03;84816.35;;;-1.34;37.31
36514;BME280;66331;46.796;9.824;2023-01-10T12:13:43;84809.43;;;-1.23;36.04
36514;BME280;66331;46.796;9.824;2023-01-10T12:16:16;84812.57;;;-0.25;35.03
36514;BME280;66331;46.796;9.824;2023-01-10T12:18:50;84814.11;;;-0.48;35.56
36514;BME280;66331;46.796;9.824;2023-01-10T12:21:22;84814.15;;;-0.44;33.61
36514;BME280;66331;46.796;9.824;2023-01-10T12:23:53;84813.74;;;-0.67;33.99
36514;BME280;66331;46.796;9.824;2023-01-10T12:26:20;84813.69;;;-0.63;36.22
36514;BME280;66331;46.796;9.824;2023-01-10T12:28:50;84820.50;;;-1.45;37.18
36514;BME280;66331;46.796;9.824;2023-01-10T12:31:20;84816.33;;;-1.17;36.72
36514;BME280;66331;46.796;9.824;2023-01-10T12:33:52;84811.30;;;-1.46;38.18
36514;BME280;66331;46.796;9.824;2023-01-10T12:36:33;84807.59;;;-2.08;37.91
36514;BME280;66331;46.796;9.824;2023-01-10T12:39:09;84811.29;;;-0.97;35.84
36514;BME280;66331;46.796;9.824;2023-01-10T12:41:51;84807.64;;;-0.57;34.89
36514;BME280;66331;46.796;9.824;2023-01-10T12:44:24;84806.14;;;-0.82;34.83
36514;BME280;66331;46.796;9.824;2023-01-10T12:46:57;84807.26;;;-1.10;34.45
36514;BME280;66331;46.796;9.824;2023-01-10T12:49:33;84808.73;;;-0.61;35.88
36514;BME280;66331;46.796;9.824;2023-01-10T12:52:06;84816.97;;;-1.25;37.08
36514;BME280;66331;46.796;9.824;2023-01-10T12:54:37;84821.45;;;-1.03;37.96
36514;BME280;66331;46.796;9.824;2023-01-10T12:57:13;84820.63;;;-1.05;38.34
36514;BME280;66331;46.796;9.824;2023-01-10T12:59:47;84824.85;;;-1.16;38.30
36514;BME280;66331;46.796;9.824;2023-01-10T13:02:24;84827.21;;;-1.01;37.01
36514;BME280;66331;46.796;9.824;2023-01-10T13:04:56;84832.99;;;-1.60;38.91
36514;BME280;66331;46.796;9.824;2023-01-10T13:07:27;84832.91;;;-0.71;36.14
36514;BME280;66331;46.796;9.824;2023-01-10T13:09:56;84838.00;;;-1.03;34.68
36514;BME280;66331;46.796;9.824;2023-01-10T13:12:32;84844.93;;;-0.24;29.88
36514;BME280;66331;46.796;9.824;2023-01-10T13:15:08;84847.40;;;-0.93;32.69
36514;BME280;66331;46.796;9.824;2023-01-10T13:17:42;84842.38;;;-1.52;31.73
36514;BME280;66331;46.796;9.824;2023-01-10T13:21:02;84836.40;;;-1.50;33.62